CMA CGM Herodote — MFEP — position and weather

sailwx.info

Track history (hours):
 
Tides and Currents Weather Stations Pressure Air Temp Water Temp Dewpoint Dewpoint Depression Visibility Wind Speed Wind Dir Waves Ship Positions

CMA CGM Herodote

Last reported at 2015-May-16 08:30 UTC. Time now 2015-May-22 10:05 UTC.
Position N 13°31' W 062°26'.

Length 170 m; draft 9 m.

Type: Ship (hazmat cat A). MMSI: 235051085.

Date/timePositionNaut miles runAvg speedWind from/ knotsBaromVisibWave heightAir tempDewpointWater temp
2015-May-16 08:30N 13°31' W 062°26'1919.4
2015-May-16 07:32N 13°49' W 062°29'23018.8
2015-May-15 19:19N 17°36' W 063°06'1519.5
2015-May-15 18:33N 17°51' W 063°06'10 9.7
2015-May-15 17:33N 18°01' W 063°03'0 0.0
2015-May-15 15:31N 18°01' W 063°03'0 0.0
2015-May-15 09:10N 18°01' W 063°03'0 0.0
2015-May-15 07:10N 18°01' W 063°03'0 0.0
2015-May-15 05:10N 18°01' W 063°03'0 0.0
2015-May-15 04:28N 18°01' W 063°03'0 0.0
2015-May-15 03:28N 18°01' W 063°03'3 3.5
2015-May-15 02:33N 17°59' W 063°06'  
2015-May-09 23:30N 35°41' W 026°09'1617.3
2015-May-09 22:33N 35°53' W 025°55'1717.5
2015-May-09 21:34N 36°05' W 025°40'1817.7
2015-May-09 20:34N 36°19' W 025°26'1818.3
2015-May-09 19:34N 36°32' W 025°10'1818.3
2015-May-09 18:34N 36°45' W 024°54'1818.3
2015-May-09 17:33N 36°59' W 024°40'1818.1
2015-May-09 16:34N 37°13' W 024°25'1818.3
2015-May-09 15:33N 37°27' W 024°11'1818.1
2015-May-09 14:33N 37°41' W 023°56'1817.9
2015-May-09 13:33N 37°55' W 023°42'  
2015-May-06 15:22N 49°59' W 002°52'7813.1
2015-May-06 09:24N 49°45' W 000°54'1012.4
2015-May-06 08:33N 49°41' W 000°39'  
Track history (hours):
 
Tides and Currents Weather Stations Pressure Air Temp Water Temp Dewpoint Dewpoint Depression Visibility Wind Speed Wind Dir Waves Ship Positions

CMA CGM Herodote

Last reported at 2015-May-16 08:30 UTC. Time now 2015-May-22 10:05 UTC.
Position N 13°31' W 062°26'.

Length 170 m; draft 9 m.

Type: Ship (hazmat cat A). MMSI: 235051085.

Date/timePositionNaut miles runAvg speedWind from/ knotsBaromVisibWave heightAir tempDewpointWater temp
2015-May-16 08:30N 13°31' W 062°26'1919.4
2015-May-16 07:32N 13°49' W 062°29'23018.8
2015-May-15 19:19N 17°36' W 063°06'1519.5
2015-May-15 18:33N 17°51' W 063°06'10 9.7
2015-May-15 17:33N 18°01' W 063°03'0 0.0
2015-May-15 15:31N 18°01' W 063°03'0 0.0
2015-May-15 09:10N 18°01' W 063°03'0 0.0
2015-May-15 07:10N 18°01' W 063°03'0 0.0
2015-May-15 05:10N 18°01' W 063°03'0 0.0
2015-May-15 04:28N 18°01' W 063°03'0 0.0
2015-May-15 03:28N 18°01' W 063°03'3 3.5
2015-May-15 02:33N 17°59' W 063°06'  
2015-May-09 23:30N 35°41' W 026°09'1617.3
2015-May-09 22:33N 35°53' W 025°55'1717.5
2015-May-09 21:34N 36°05' W 025°40'1817.7
2015-May-09 20:34N 36°19' W 025°26'1818.3
2015-May-09 19:34N 36°32' W 025°10'1818.3
2015-May-09 18:34N 36°45' W 024°54'1818.3
2015-May-09 17:33N 36°59' W 024°40'1818.1
2015-May-09 16:34N 37°13' W 024°25'1818.3
2015-May-09 15:33N 37°27' W 024°11'1818.1
2015-May-09 14:33N 37°41' W 023°56'1817.9
2015-May-09 13:33N 37°55' W 023°42'  
2015-May-06 15:22N 49°59' W 002°52'7813.1
2015-May-06 09:24N 49°45' W 000°54'1012.4
2015-May-06 08:33N 49°41' W 000°39'  

Dump ship's entire track history